sensor_id;sensor_type;location;lat;lon;timestamp;pressure;altitude;pressure_sealevel;temperature;humidity
72855;BME280;60991;51.278;22.550;2023-10-08T00:01:02;98673.09;;;11.34;76.26
72855;BME280;60991;51.278;22.550;2023-10-08T00:02:33;98674.44;;;11.41;76.17
72855;BME280;60991;51.278;22.550;2023-10-08T00:04:03;98673.88;;;11.29;75.51
72855;BME280;60991;51.278;22.550;2023-10-08T00:05:37;98673.06;;;11.24;76.10
72855;BME280;60991;51.278;22.550;2023-10-08T00:07:07;98676.69;;;11.07;76.23
72855;BME280;60991;51.278;22.550;2023-10-08T00:08:38;98673.72;;;10.99;76.40
72855;BME280;60991;51.278;22.550;2023-10-08T00:10:08;98682.22;;;11.01;76.19
72855;BME280;60991;51.278;22.550;2023-10-08T00:11:39;98678.25;;;11.03;76.19
72855;BME280;60991;51.278;22.550;2023-10-08T00:13:09;98681.38;;;10.95;76.59
72855;BME280;60991;51.278;22.550;2023-10-08T00:14:40;98689.09;;;10.92;76.74
72855;BME280;60991;51.278;22.550;2023-10-08T00:16:12;98676.88;;;10.91;76.48
72855;BME280;60991;51.278;22.550;2023-10-08T00:17:42;98683.88;;;11.07;76.43
72855;BME280;60991;51.278;22.550;2023-10-08T00:19:12;98676.41;;;11.04;76.66
72855;BME280;60991;51.278;22.550;2023-10-08T00:20:42;98674.03;;;11.07;76.58
72855;BME280;60991;51.278;22.550;2023-10-08T00:22:13;98682.03;;;11.13;76.52
72855;BME280;60991;51.278;22.550;2023-10-08T00:23:43;98678.03;;;11.10;76.64
72855;BME280;60991;51.278;22.550;2023-10-08T00:25:14;98672.41;;;11.01;76.88
72855;BME280;60991;51.278;22.550;2023-10-08T00:26:44;98682.25;;;11.06;76.91
72855;BME280;60991;51.278;22.550;2023-10-08T00:28:14;98686.44;;;10.97;76.77
72855;BME280;60991;51.278;22.550;2023-10-08T00:29:44;98685.97;;;11.05;76.92
72855;BME280;60991;51.278;22.550;2023-10-08T00:31:14;98693.47;;;11.13;76.62
72855;BME280;60991;51.278;22.550;2023-10-08T00:32:45;98682.28;;;11.11;76.49
72855;BME280;60991;51.278;22.550;2023-10-08T00:34:16;98685.22;;;11.15;76.78
72855;BME280;60991;51.278;22.550;2023-10-08T00:35:47;98682.00;;;11.07;76.46
72855;BME280;60991;51.278;22.550;2023-10-08T00:37:17;98683.34;;;11.15;76.19
72855;BME280;60991;51.278;22.550;2023-10-08T00:38:47;98683.34;;;11.15;76.36
72855;BME280;60991;51.278;22.550;2023-10-08T00:40:17;98674.31;;;11.11;76.65
72855;BME280;60991;51.278;22.550;2023-10-08T00:41:49;98683.59;;;11.14;76.63
72855;BME280;60991;51.278;22.550;2023-10-08T00:45:01;98691.06;;;11.17;76.52
72855;BME280;60991;51.278;22.550;2023-10-08T00:46:32;98679.38;;;11.18;76.45
72855;BME280;60991;51.278;22.550;2023-10-08T00:48:03;98685.78;;;11.22;76.42
72855;BME280;60991;51.278;22.550;2023-10-08T00:49:33;98693.03;;;11.31;76.09
72855;BME280;60991;51.278;22.550;2023-10-08T00:51:04;98694.63;;;11.37;76.16
72855;BME280;60991;51.278;22.550;2023-10-08T00:52:35;98693.81;;;11.37;76.13
72855;BME280;60991;51.278;22.550;2023-10-08T00:54:06;98683.97;;;11.32;76.36
72855;BME280;60991;51.278;22.550;2023-10-08T00:55:36;98666.75;;;11.40;75.97
72855;BME280;60991;51.278;22.550;2023-10-08T00:57:07;98671.28;;;11.44;75.77
72855;BME280;60991;51.278;22.550;2023-10-08T00:58:37;98685.34;;;11.40;75.71
72855;BME280;60991;51.278;22.550;2023-10-08T01:00:08;98686.13;;;11.40;75.86
72855;BME280;60991;51.278;22.550;2023-10-08T01:01:39;98693.28;;;11.35;75.84
72855;BME280;60991;51.278;22.550;2023-10-08T01:03:09;98698.25;;;11.16;76.00
72855;BME280;60991;51.278;22.550;2023-10-08T01:04:39;98701.69;;;11.12;76.14
72855;BME280;60991;51.278;22.550;2023-10-08T01:06:13;98694.22;;;11.08;76.60
72855;BME280;60991;51.278;22.550;2023-10-08T01:07:43;98697.63;;;10.99;76.89
72855;BME280;60991;51.278;22.550;2023-10-08T01:09:15;98693.09;;;10.99;76.79
72855;BME280;60991;51.278;22.550;2023-10-08T01:10:45;98702.41;;;11.02;76.67
72855;BME280;60991;51.278;22.550;2023-10-08T01:13:46;98689.63;;;10.94;77.29
72855;BME280;60991;51.278;22.550;2023-10-08T01:15:16;98692.81;;;10.91;77.13
72855;BME280;60991;51.278;22.550;2023-10-08T01:16:47;98688.84;;;10.98;76.93
72855;BME280;60991;51.278;22.550;2023-10-08T01:18:17;98684.31;;;10.94;77.02
72855;BME280;60991;51.278;22.550;2023-10-08T01:19:47;98682.19;;;10.91;76.95
72855;BME280;60991;51.278;22.550;2023-10-08T01:21:18;98674.81;;;11.03;77.07
72855;BME280;60991;51.278;22.550;2023-10-08T01:22:48;98669.78;;;11.06;76.70
72855;BME280;60991;51.278;22.550;2023-10-08T01:24:18;98665.00;;;11.08;76.64
72855;BME280;60991;51.278;22.550;2023-10-08T01:25:49;98658.13;;;11.13;76.75
72855;BME280;60991;51.278;22.550;2023-10-08T01:27:19;98655.25;;;11.24;76.61
72855;BME280;60991;51.278;22.550;2023-10-08T01:28:50;98660.78;;;11.18;76.27
72855;BME280;60991;51.278;22.550;2023-10-08T01:30:20;98665.31;;;11.12;76.13
72855;BME280;60991;51.278;22.550;2023-10-08T01:31:50;98662.91;;;11.10;76.34
72855;BME280;60991;51.278;22.550;2023-10-08T01:33:21;98670.31;;;11.14;76.28
72855;BME280;60991;51.278;22.550;2023-10-08T01:34:51;98662.34;;;11.14;76.31
72855;BME280;60991;51.278;22.550;2023-10-08T01:36:21;98659.22;;;11.22;75.74
72855;BME280;60991;51.278;22.550;2023-10-08T01:37:54;98665.84;;;11.19;75.95
72855;BME280;60991;51.278;22.550;2023-10-08T01:39:24;98657.13;;;11.29;75.80
72855;BME280;60991;51.278;22.550;2023-10-08T01:40:55;98656.78;;;11.15;75.81
72855;BME280;60991;51.278;22.550;2023-10-08T01:42:25;98657.34;;;11.17;75.79
72855;BME280;60991;51.278;22.550;2023-10-08T01:43:56;98658.94;;;11.18;75.94
72855;BME280;60991;51.278;22.550;2023-10-08T01:45:27;98660.28;;;11.21;75.45
72855;BME280;60991;51.278;22.550;2023-10-08T01:46:57;98662.72;;;11.27;75.56
72855;BME280;60991;51.278;22.550;2023-10-08T01:48:27;98664.53;;;11.22;75.41
72855;BME280;60991;51.278;22.550;2023-10-08T01:49:57;98668.53;;;11.24;75.23
72855;BME280;60991;51.278;22.550;2023-10-08T01:51:27;98667.72;;;11.19;75.65
72855;BME280;60991;51.278;22.550;2023-10-08T01:52:58;98671.41;;;11.13;75.52
72855;BME280;60991;51.278;22.550;2023-10-08T01:54:28;98682.56;;;11.09;75.29
72855;BME280;60991;51.278;22.550;2023-10-08T01:55:58;98689.22;;;11.17;75.18
72855;BME280;60991;51.278;22.550;2023-10-08T01:57:28;98688.16;;;11.13;75.67
72855;BME280;60991;51.278;22.550;2023-10-08T01:58:58;98673.72;;;10.99;75.86
72855;BME280;60991;51.278;22.550;2023-10-08T02:00:28;98671.25;;;10.87;76.32
72855;BME280;60991;51.278;22.550;2023-10-08T02:01:59;98671.56;;;10.96;75.65
72855;BME280;60991;51.278;22.550;2023-10-08T02:03:29;98681.66;;;10.94;75.88
72855;BME280;60991;51.278;22.550;2023-10-08T02:04:59;98677.56;;;10.76;76.41
72855;BME280;60991;51.278;22.550;2023-10-08T02:06:29;98684.53;;;10.87;76.55
72855;BME280;60991;51.278;22.550;2023-10-08T02:07:59;98683.78;;;10.92;76.52
72855;BME280;60991;51.278;22.550;2023-10-08T02:09:30;98680.53;;;10.85;76.41
72855;BME280;60991;51.278;22.550;2023-10-08T02:11:00;98680.84;;;10.88;76.50
72855;BME280;60991;51.278;22.550;2023-10-08T02:12:31;98677.38;;;10.88;76.56
72855;BME280;60991;51.278;22.550;2023-10-08T02:14:02;98672.91;;;10.98;76.40
72855;BME280;60991;51.278;22.550;2023-10-08T02:15:33;98667.00;;;10.86;76.49
72855;BME280;60991;51.278;22.550;2023-10-08T02:17:03;98659.84;;;10.87;75.93
72855;BME280;60991;51.278;22.550;2023-10-08T02:18:33;98649.47;;;10.85;76.46
72855;BME280;60991;51.278;22.550;2023-10-08T02:20:04;98652.13;;;10.85;76.18
72855;BME280;60991;51.278;22.550;2023-10-08T02:21:34;98666.72;;;10.83;76.72
72855;BME280;60991;51.278;22.550;2023-10-08T02:23:04;98667.72;;;10.71;76.59
72855;BME280;60991;51.278;22.550;2023-10-08T02:24:35;98656.84;;;10.73;77.00
72855;BME280;60991;51.278;22.550;2023-10-08T02:26:06;98660.75;;;10.65;77.12
72855;BME280;60991;51.278;22.550;2023-10-08T02:27:36;98665.31;;;10.70;76.97
72855;BME280;60991;51.278;22.550;2023-10-08T02:29:07;98664.25;;;10.71;76.86
72855;BME280;60991;51.278;22.550;2023-10-08T02:30:38;98667.41;;;10.68;77.34
72855;BME280;60991;51.278;22.550;2023-10-08T02:32:09;98666.31;;;10.64;77.37
72855;BME280;60991;51.278;22.550;2023-10-08T02:33:39;98670.06;;;10.68;77.20
72855;BME280;60991;51.278;22.550;2023-10-08T02:35:10;98667.41;;;10.68;77.25
72855;BME280;60991;51.278;22.550;2023-10-08T02:36:40;98665.56;;;10.68;77.31
72855;BME280;60991;51.278;22.550;2023-10-08T02:38:11;98667.38;;;10.63;77.85
72855;BME280;60991;51.278;22.550;2023-10-08T02:39:42;98661.91;;;10.74;77.41
72855;BME280;60991;51.278;22.550;2023-10-08T02:41:16;98666.38;;;10.69;77.58
72855;BME280;60991;51.278;22.550;2023-10-08T02:42:48;98670.03;;;10.63;77.62
72855;BME280;60991;51.278;22.550;2023-10-08T02:44:18;98687.75;;;10.52;78.16
72855;BME280;60991;51.278;22.550;2023-10-08T02:45:48;98689.41;;;10.63;77.90
72855;BME280;60991;51.278;22.550;2023-10-08T02:47:20;98700.88;;;10.69;77.75
72855;BME280;60991;51.278;22.550;2023-10-08T02:48:50;98670.84;;;10.63;78.04
72855;BME280;60991;51.278;22.550;2023-10-08T02:50:21;98658.13;;;10.65;78.19
72855;BME280;60991;51.278;22.550;2023-10-08T02:51:54;98645.34;;;10.62;78.35
72855;BME280;60991;51.278;22.550;2023-10-08T02:53:24;98648.03;;;10.67;77.83
72855;BME280;60991;51.278;22.550;2023-10-08T02:54:55;98653.13;;;10.74;77.63
72855;BME280;60991;51.278;22.550;2023-10-08T02:56:25;98661.81;;;10.64;78.05
72855;BME280;60991;51.278;22.550;2023-10-08T02:57:55;98662.84;;;10.58;78.54
72855;BME280;60991;51.278;22.550;2023-10-08T02:59:29;98648.50;;;10.59;78.38
72855;BME280;60991;51.278;22.550;2023-10-08T03:01:00;98645.34;;;10.62;78.70
72855;BME280;60991;51.278;22.550;2023-10-08T03:02:30;98665.63;;;10.73;78.28
72855;BME280;60991;51.278;22.550;2023-10-08T03:04:00;98667.16;;;10.69;78.35
72855;BME280;60991;51.278;22.550;2023-10-08T03:05:31;98667.88;;;10.60;78.41
72855;BME280;60991;51.278;22.550;2023-10-08T03:07:01;98685.16;;;10.57;78.59
72855;BME280;60991;51.278;22.550;2023-10-08T03:08:31;98686.75;;;10.63;78.32
72855;BME280;60991;51.278;22.550;2023-10-08T03:10:01;98673.78;;;10.67;78.50
72855;BME280;60991;51.278;22.550;2023-10-08T03:11:31;98681.41;;;10.58;78.72
72855;BME280;60991;51.278;22.550;2023-10-08T03:13:02;98687.78;;;10.57;79.06
72855;BME280;60991;51.278;22.550;2023-10-08T03:14:32;98701.72;;;10.43;79.14
72855;BME280;60991;51.278;22.550;2023-10-08T03:16:02;98697.25;;;10.48;79.29
72855;BME280;60991;51.278;22.550;2023-10-08T03:17:32;98698.50;;;10.35;79.61
72855;BME280;60991;51.278;22.550;2023-10-08T03:19:02;98701.09;;;10.30;79.84
72855;BME280;60991;51.278;22.550;2023-10-08T03:20:34;98720.03;;;10.39;79.64
72855;BME280;60991;51.278;22.550;2023-10-08T03:22:04;98731.75;;;10.48;79.58
72855;BME280;60991;51.278;22.550;2023-10-08T03:23:34;98733.44;;;10.59;79.21
72855;BME280;60991;51.278;22.550;2023-10-08T03:25:05;98729.47;;;10.62;79.17
72855;BME280;60991;51.278;22.550;2023-10-08T03:26:35;98716.75;;;10.64;78.91
72855;BME280;60991;51.278;22.550;2023-10-08T03:28:05;98720.66;;;10.51;78.85
72855;BME280;60991;51.278;22.550;2023-10-08T03:29:36;98719.59;;;10.52;79.13
72855;BME280;60991;51.278;22.550;2023-10-08T03:31:06;98719.28;;;10.49;79.39
72855;BME280;60991;51.278;22.550;2023-10-08T03:32:36;98710.47;;;10.38;79.70
72855;BME280;60991;51.278;22.550;2023-10-08T03:34:07;98709.66;;;10.37;79.30
72855;BME280;60991;51.278;22.550;2023-10-08T03:35:37;98722.25;;;10.52;78.97
72855;BME280;60991;51.278;22.550;2023-10-08T03:37:07;98714.44;;;10.40;78.96
72855;BME280;60991;51.278;22.550;2023-10-08T03:38:37;98713.53;;;10.57;78.89
72855;BME280;60991;51.278;22.550;2023-10-08T03:40:08;98709.53;;;10.54;78.90
72855;BME280;60991;51.278;22.550;2023-10-08T03:41:39;98711.00;;;10.72;78.27
72855;BME280;60991;51.278;22.550;2023-10-08T03:43:09;98717.41;;;10.76;77.87
72855;BME280;60991;51.278;22.550;2023-10-08T03:44:40;98721.09;;;10.75;77.97
72855;BME280;60991;51.278;22.550;2023-10-08T03:46:10;98723.91;;;10.63;77.97
72855;BME280;60991;51.278;22.550;2023-10-08T03:47:40;98728.13;;;10.59;78.31
72855;BME280;60991;51.278;22.550;2023-10-08T03:49:11;98728.69;;;10.61;78.16
72855;BME280;60991;51.278;22.550;2023-10-08T03:50:41;98731.69;;;10.70;77.88
72855;BME280;60991;51.278;22.550;2023-10-08T03:52:11;98729.88;;;10.75;77.68
72855;BME280;60991;51.278;22.550;2023-10-08T03:53:42;98732.13;;;10.57;78.33
72855;BME280;60991;51.278;22.550;2023-10-08T03:55:12;98733.88;;;10.46;78.60
72855;BME280;60991;51.278;22.550;2023-10-08T03:56:44;98749.53;;;10.48;78.17
72855;BME280;60991;51.278;22.550;2023-10-08T03:58:14;98757.25;;;10.49;78.38
72855;BME280;60991;51.278;22.550;2023-10-08T03:59:44;98759.09;;;10.49;78.34
72855;BME280;60991;51.278;22.550;2023-10-08T04:01:14;98758.28;;;10.48;78.40
72855;BME280;60991;51.278;22.550;2023-10-08T04:02:45;98741.25;;;10.39;78.61
72855;BME280;60991;51.278;22.550;2023-10-08T04:04:15;98740.81;;;10.52;78.41
72855;BME280;60991;51.278;22.550;2023-10-08T04:05:45;98752.81;;;10.60;78.38
72855;BME280;60991;51.278;22.550;2023-10-08T04:07:17;98766.81;;;10.50;78.40
72855;BME280;60991;51.278;22.550;2023-10-08T04:08:48;98769.28;;;10.62;77.97
72855;BME280;60991;51.278;22.550;2023-10-08T04:10:18;98777.06;;;10.68;77.92
72855;BME280;60991;51.278;22.550;2023-10-08T04:11:50;98770.06;;;10.57;77.96
72855;BME280;60991;51.278;22.550;2023-10-08T04:13:20;98769.97;;;10.47;78.29
72855;BME280;60991;51.278;22.550;2023-10-08T04:14:50;98768.78;;;10.33;78.22
72855;BME280;60991;51.278;22.550;2023-10-08T04:16:20;98762.41;;;10.34;78.57
72855;BME280;60991;51.278;22.550;2023-10-08T04:17:50;98767.38;;;10.52;78.03
72855;BME280;60991;51.278;22.550;2023-10-08T04:19:22;98761.38;;;10.67;77.38
72855;BME280;60991;51.278;22.550;2023-10-08T04:20:52;98756.38;;;10.70;77.63
72855;BME280;60991;51.278;22.550;2023-10-08T04:22:23;98773.41;;;10.80;77.04
72855;BME280;60991;51.278;22.550;2023-10-08T04:23:53;98772.66;;;10.84;76.79
72855;BME280;60991;51.278;22.550;2023-10-08T04:25:24;98781.81;;;10.66;76.86
72855;BME280;60991;51.278;22.550;2023-10-08T04:26:57;98785.63;;;10.49;77.50
72855;BME280;60991;51.278;22.550;2023-10-08T04:28:27;98791.19;;;10.47;77.50
72855;BME280;60991;51.278;22.550;2023-10-08T04:29:58;98785.50;;;10.33;77.78
72855;BME280;60991;51.278;22.550;2023-10-08T04:31:31;98804.13;;;10.38;77.60
72855;BME280;60991;51.278;22.550;2023-10-08T04:33:03;98806.22;;;10.36;78.18
72855;BME280;60991;51.278;22.550;2023-10-08T04:34:34;98800.84;;;10.31;78.22
72855;BME280;60991;51.278;22.550;2023-10-08T04:36:05;98789.63;;;10.24;78.39
72855;BME280;60991;51.278;22.550;2023-10-08T04:37:35;98780.06;;;10.23;78.37
72855;BME280;60991;51.278;22.550;2023-10-08T04:39:05;98788.88;;;10.29;78.32
72855;BME280;60991;51.278;22.550;2023-10-08T04:40:35;98788.38;;;10.32;78.16
72855;BME280;60991;51.278;22.550;2023-10-08T04:42:06;98803.19;;;10.28;78.13
72855;BME280;60991;51.278;22.550;2023-10-08T04:43:36;98790.97;;;10.27;78.26
72855;BME280;60991;51.278;22.550;2023-10-08T04:45:06;98795.09;;;10.39;77.75
72855;BME280;60991;51.278;22.550;2023-10-08T04:46:37;98802.78;;;10.41;77.86
72855;BME280;60991;51.278;22.550;2023-10-08T04:48:07;98803.47;;;10.53;77.29
72855;BME280;60991;51.278;22.550;2023-10-08T04:49:37;98806.91;;;10.54;77.11
72855;BME280;60991;51.278;22.550;2023-10-08T04:51:07;98818.78;;;10.46;77.18
72855;BME280;60991;51.278;22.550;2023-10-08T04:52:37;98805.06;;;10.27;77.76
72855;BME280;60991;51.278;22.550;2023-10-08T04:54:08;98818.44;;;10.37;77.81
72855;BME280;60991;51.278;22.550;2023-10-08T04:55:38;98814.13;;;10.31;77.83
72855;BME280;60991;51.278;22.550;2023-10-08T04:57:08;98810.41;;;10.32;78.02
72855;BME280;60991;51.278;22.550;2023-10-08T04:58:40;98810.84;;;10.24;78.25
72855;BME280;60991;51.278;22.550;2023-10-08T05:00:10;98809.91;;;10.35;78.24
72855;BME280;60991;51.278;22.550;2023-10-08T05:01:41;98807.69;;;10.27;78.07
72855;BME280;60991;51.278;22.550;2023-10-08T05:03:11;98815.59;;;10.22;78.29
72855;BME280;60991;51.278;22.550;2023-10-08T05:04:41;98823.66;;;10.11;78.81
72855;BME280;60991;51.278;22.550;2023-10-08T05:06:11;98815.97;;;10.09;79.04
72855;BME280;60991;51.278;22.550;2023-10-08T05:07:42;98821.81;;;10.11;78.70
72855;BME280;60991;51.278;22.550;2023-10-08T05:09:12;98829.53;;;10.13;78.93
72855;BME280;60991;51.278;22.550;2023-10-08T05:10:43;98835.00;;;10.06;79.16
72855;BME280;60991;51.278;22.550;2023-10-08T05:12:13;98839.03;;;10.08;78.97
72855;BME280;60991;51.278;22.550;2023-10-08T05:13:43;98843.44;;;10.03;79.28
72855;BME280;60991;51.278;22.550;2023-10-08T05:15:14;98844.00;;;10.05;79.15
72855;BME280;60991;51.278;22.550;2023-10-08T05:16:44;98844.16;;;9.93;79.50
72855;BME280;60991;51.278;22.550;2023-10-08T05:18:14;98843.09;;;9.94;79.76
72855;BME280;60991;51.278;22.550;2023-10-08T05:19:44;98843.34;;;9.93;79.68
72855;BME280;60991;51.278;22.550;2023-10-08T05:21:14;98841.41;;;9.88;80.13
72855;BME280;60991;51.278;22.550;2023-10-08T05:22:45;98848.41;;;9.94;80.01
72855;BME280;60991;51.278;22.550;2023-10-08T05:24:15;98850.25;;;9.94;79.92
72855;BME280;60991;51.278;22.550;2023-10-08T05:25:47;98848.00;;;9.86;79.89
72855;BME280;60991;51.278;22.550;2023-10-08T05:27:17;98848.09;;;9.91;79.36
72855;BME280;60991;51.278;22.550;2023-10-08T05:28:47;98849.94;;;9.90;79.90
72855;BME280;60991;51.278;22.550;2023-10-08T05:30:20;98843.75;;;9.85;80.17
72855;BME280;60991;51.278;22.550;2023-10-08T05:31:50;98845.31;;;10.02;79.96
72855;BME280;60991;51.278;22.550;2023-10-08T05:33:21;98846.97;;;10.08;79.33
72855;BME280;60991;51.278;22.550;2023-10-08T05:34:51;98850.13;;;10.05;79.34
72855;BME280;60991;51.278;22.550;2023-10-08T05:36:21;98851.28;;;9.93;79.79
72855;BME280;60991;51.278;22.550;2023-10-08T05:37:51;98851.47;;;9.86;80.24
72855;BME280;60991;51.278;22.550;2023-10-08T05:39:21;98857.09;;;9.90;80.03
72855;BME280;60991;51.278;22.550;2023-10-08T05:40:53;98862.94;;;9.92;80.33
72855;BME280;60991;51.278;22.550;2023-10-08T05:42:23;98862.81;;;10.03;80.05
72855;BME280;60991;51.278;22.550;2023-10-08T05:43:54;98864.13;;;10.01;80.17
72855;BME280;60991;51.278;22.550;2023-10-08T05:45:24;98866.88;;;9.89;80.09
72855;BME280;60991;51.278;22.550;2023-10-08T05:46:54;98872.91;;;9.85;80.72
72855;BME280;60991;51.278;22.550;2023-10-08T05:48:24;98870.53;;;9.83;80.52
72855;BME280;60991;51.278;22.550;2023-10-08T05:49:55;98872.88;;;9.80;80.46
72855;BME280;60991;51.278;22.550;2023-10-08T05:51:25;98878.06;;;9.91;80.45
72855;BME280;60991;51.278;22.550;2023-10-08T05:52:55;98871.00;;;10.02;80.31
72855;BME280;60991;51.278;22.550;2023-10-08T05:54:25;98886.50;;;10.10;80.03
72855;BME280;60991;51.278;22.550;2023-10-08T05:56:04;98875.59;;;10.06;80.11
72855;BME280;60991;51.278;22.550;2023-10-08T05:57:34;98882.63;;;10.18;80.13
72855;BME280;60991;51.278;22.550;2023-10-08T05:59:04;98885.47;;;10.11;79.82
72855;BME280;60991;51.278;22.550;2023-10-08T06:00:34;98885.63;;;10.04;79.92
72855;BME280;60991;51.278;22.550;2023-10-08T06:02:08;98885.03;;;9.97;80.40
72855;BME280;60991;51.278;22.550;2023-10-08T06:03:38;98890.25;;;9.92;80.48
72855;BME280;60991;51.278;22.550;2023-10-08T06:05:09;98898.53;;;9.96;80.73
72855;BME280;60991;51.278;22.550;2023-10-08T06:06:40;98899.66;;;10.00;80.90
72855;BME280;60991;51.278;22.550;2023-10-08T06:08:10;98896.81;;;10.06;80.78
72855;BME280;60991;51.278;22.550;2023-10-08T06:09:40;98916.41;;;10.05;80.71
72855;BME280;60991;51.278;22.550;2023-10-08T06:11:11;98914.56;;;10.06;80.28
72855;BME280;60991;51.278;22.550;2023-10-08T06:12:41;98919.56;;;10.02;80.61
72855;BME280;60991;51.278;22.550;2023-10-08T06:14:11;98915.31;;;10.01;80.41
72855;BME280;60991;51.278;22.550;2023-10-08T06:15:44;98921.03;;;9.93;80.62
72855;BME280;60991;51.278;22.550;2023-10-08T06:17:14;98925.13;;;10.01;80.91
72855;BME280;60991;51.278;22.550;2023-10-08T06:18:44;98927.50;;;10.02;80.60
72855;BME280;60991;51.278;22.550;2023-10-08T06:20:14;98934.16;;;10.05;79.45
72855;BME280;60991;51.278;22.550;2023-10-08T06:21:45;98935.97;;;9.99;80.01
72855;BME280;60991;51.278;22.550;2023-10-08T06:23:17;98936.53;;;10.01;79.62
72855;BME280;60991;51.278;22.550;2023-10-08T06:24:47;98939.47;;;10.05;79.92
72855;BME280;60991;51.278;22.550;2023-10-08T06:26:17;98944.50;;;10.01;80.10
72855;BME280;60991;51.278;22.550;2023-10-08T06:27:48;98955.09;;;10.01;80.03
72855;BME280;60991;51.278;22.550;2023-10-08T06:29:18;98954.34;;;10.06;80.06
72855;BME280;60991;51.278;22.550;2023-10-08T06:30:50;98954.41;;;10.11;79.94
72855;BME280;60991;51.278;22.550;2023-10-08T06:32:20;98963.75;;;10.14;79.44
72855;BME280;60991;51.278;22.550;2023-10-08T06:33:50;98964.66;;;10.19;79.17
72855;BME280;60991;51.278;22.550;2023-10-08T06:35:21;98966.00;;;10.22;78.54
72855;BME280;60991;51.278;22.550;2023-10-08T06:36:51;98965.75;;;10.23;78.71
72855;BME280;60991;51.278;22.550;2023-10-08T06:38:21;98969.53;;;10.27;78.92
72855;BME280;60991;51.278;22.550;2023-10-08T06:39:51;98968.22;;;10.30;78.05
72855;BME280;60991;51.278;22.550;2023-10-08T06:41:21;98977.56;;;10.32;78.29
72855;BME280;60991;51.278;22.550;2023-10-08T06:42:52;98984.53;;;10.38;78.30
72855;BME280;60991;51.278;22.550;2023-10-08T06:44:22;98991.69;;;10.38;78.11
72855;BME280;60991;51.278;22.550;2023-10-08T06:45:52;98993.78;;;10.36;78.07
72855;BME280;60991;51.278;22.550;2023-10-08T06:47:23;98986.69;;;10.41;77.79
72855;BME280;60991;51.278;22.550;2023-10-08T06:48:53;98984.53;;;10.60;77.34
72855;BME280;60991;51.278;22.550;2023-10-08T06:50:23;98990.38;;;10.62;76.96
72855;BME280;60991;51.278;22.550;2023-10-08T06:51:53;99002.06;;;10.61;76.60
72855;BME280;60991;51.278;22.550;2023-10-08T06:53:24;99002.06;;;10.61;76.33
72855;BME280;60991;51.278;22.550;2023-10-08T06:54:54;99007.31;;;10.56;76.20
72855;BME280;60991;51.278;22.550;2023-10-08T06:56:25;99003.06;;;10.55;76.15
72855;BME280;60991;51.278;22.550;2023-10-08T06:57:55;99014.72;;;10.54;74.88
72855;BME280;60991;51.278;22.550;2023-10-08T06:59:25;99015.63;;;10.43;75.39
72855;BME280;60991;51.278;22.550;2023-10-08T07:00:55;99024.06;;;10.40;75.53
72855;BME280;60991;51.278;22.550;2023-10-08T07:02:25;99019.31;;;10.42;75.08
72855;BME280;60991;51.278;22.550;2023-10-08T07:03:56;99023.03;;;10.41;75.35
72855;BME280;60991;51.278;22.550;2023-10-08T07:05:26;99023.97;;;10.52;75.09
72855;BME280;60991;51.278;22.550;2023-10-08T07:06:56;99029.53;;;10.50;75.13
72855;BME280;60991;51.278;22.550;2023-10-08T07:08:29;99019.97;;;10.49;74.76
72855;BME280;60991;51.278;22.550;2023-10-08T07:09:59;99031.53;;;10.43;74.03
72855;BME280;60991;51.278;22.550;2023-10-08T07:11:31;99041.56;;;10.58;73.70
72855;BME280;60991;51.278;22.550;2023-10-08T07:13:02;99024.16;;;10.67;72.57
72855;BME280;60991;51.278;22.550;2023-10-08T07:14:32;99031.16;;;10.73;72.10
72855;BME280;60991;51.278;22.550;2023-10-08T07:16:03;99023.59;;;10.65;71.12
72855;BME280;60991;51.278;22.550;2023-10-08T07:17:33;99024.66;;;10.64;70.57
72855;BME280;60991;51.278;22.550;2023-10-08T07:19:03;99030.09;;;10.74;69.83
72855;BME280;60991;51.278;22.550;2023-10-08T07:20:34;99035.91;;;10.71;69.34
72855;BME280;60991;51.278;22.550;2023-10-08T07:22:05;99032.13;;;10.67;69.68
72855;BME280;60991;51.278;22.550;2023-10-08T07:23:35;99044.19;;;10.74;69.41
72855;BME280;60991;51.278;22.550;2023-10-08T07:25:06;99051.09;;;10.75;66.89
72855;BME280;60991;51.278;22.550;2023-10-08T07:26:36;99038.88;;;10.74;67.87
72855;BME280;60991;51.278;22.550;2023-10-08T07:28:06;99052.19;;;10.80;66.81
72855;BME280;60991;51.278;22.550;2023-10-08T07:29:36;99059.34;;;10.79;66.37
72855;BME280;60991;51.278;22.550;2023-10-08T07:31:18;99061.72;;;10.75;66.11
72855;BME280;60991;51.278;22.550;2023-10-08T07:32:49;99054.03;;;10.79;64.51
72855;BME280;60991;51.278;22.550;2023-10-08T07:34:20;99057.47;;;10.74;65.37
72855;BME280;60991;51.278;22.550;2023-10-08T07:35:51;99059.41;;;10.84;64.99
72855;BME280;60991;51.278;22.550;2023-10-08T07:37:21;99058.53;;;10.79;64.33
72855;BME280;60991;51.278;22.550;2023-10-08T07:38:52;99065.34;;;10.69;63.41
72855;BME280;60991;51.278;22.550;2023-10-08T07:40:23;99061.44;;;10.77;63.65
72855;BME280;60991;51.278;22.550;2023-10-08T07:41:53;99062.94;;;10.90;63.37
72855;BME280;60991;51.278;22.550;2023-10-08T07:43:24;99065.78;;;10.83;62.94
72855;BME280;60991;51.278;22.550;2023-10-08T07:44:54;99064.97;;;10.83;62.09
72855;BME280;60991;51.278;22.550;2023-10-08T07:46:25;99060.47;;;10.83;61.38
72855;BME280;60991;51.278;22.550;2023-10-08T07:47:56;99067.63;;;10.83;61.46
72855;BME280;60991;51.278;22.550;2023-10-08T07:49:27;99077.69;;;10.81;62.42
72855;BME280;60991;51.278;22.550;2023-10-08T07:50:57;99079.53;;;10.80;61.38
72855;BME280;60991;51.278;22.550;2023-10-08T07:52:27;99072.94;;;10.83;60.67
72855;BME280;60991;51.278;22.550;2023-10-08T07:53:57;99083.19;;;10.74;60.01
72855;BME280;60991;51.278;22.550;2023-10-08T07:55:28;99089.31;;;10.74;59.59
72855;BME280;60991;51.278;22.550;2023-10-08T07:56:58;99076.03;;;10.74;59.66